Time;durP1;ratioP1;P1;durP2;ratioP2;P2;SDS_P1;SDS_P2;PMS_P1;PMS_P2;Temp;Humidity;BMP_temperature;BMP_pressure;BME280_temperature;BME280_humidity;BME280_pressure;Samples;Min_cycle;Max_cycle;Signal;HPM_P1;HPM_P2
2021/04/09 00:01:50;;;;;;;;;;;7.70;69.10;;;;;;5095380;28;19939;-62
2021/04/09 00:04:17;;;;;;;;;;;7.80;69.40;;;;;;5090199;28;20301;-62
2021/04/09 00:06:44;;;;;;;;;;;7.80;69.30;;;;;;5087690;28;19928;-63
2021/04/09 00:09:11;;;;;;;;;;;7.80;68.70;;;;;;5095192;28;19934;-62
2021/04/09 00:11:39;;;;;;;;;;;7.80;68.70;;;;;;5095250;28;19924;-63
2021/04/09 00:14:05;;;;;;;;;;;7.80;68.70;;;;;;5069204;28;19924;-63
2021/04/09 00:16:32;;;;;;;;;;;7.80;68.60;;;;;;5074730;28;19934;-62
2021/04/09 00:18:58;;;;;;;;;;;7.70;68.10;;;;;;5074734;28;20250;-63
2021/04/09 00:21:24;;;;;;;;;;;7.80;68.20;;;;;;5074503;28;19938;-62
2021/04/09 00:23:51;;;;;;;;;;;7.70;68.20;;;;;;5075269;28;19924;-63
2021/04/09 00:26:17;;;;;;;;;;;7.80;68.30;;;;;;5074820;28;19984;-62
2021/04/09 00:28:44;;;;;;;;;;;7.80;68.30;;;;;;5074345;28;19924;-63
2021/04/09 00:31:10;;;;;;;;;;;7.80;68.30;;;;;;5074570;28;19925;-63
2021/04/09 00:33:36;;;;;;;;;;;7.80;68.30;;;;;;5074415;28;19938;-63
2021/04/09 00:36:03;;;;;;;;;;;7.80;68.30;;;;;;5074897;28;19925;-63
2021/04/09 00:38:29;;;;;;;;;;;7.70;68.40;;;;;;5074395;28;19928;-63
2021/04/09 00:40:55;;;;;;;;;;;7.70;68.60;;;;;;5074872;28;20259;-63
2021/04/09 00:43:21;;;;;;;;;;;7.70;68.60;;;;;;5074697;28;19935;-63
2021/04/09 00:45:49;;;;;;;;;;;7.60;68.90;;;;;;5074388;28;19934;-63
2021/04/09 00:48:15;;;;;;;;;;;7.60;68.80;;;;;;5074499;28;20053;-63
2021/04/09 00:50:41;;;;;;;;;;;7.60;69.00;;;;;;5074552;28;19925;-63
2021/04/09 00:53:09;;;;;;;;;;;7.60;69.50;;;;;;5074418;28;19925;-63
2021/04/09 00:55:36;;;;;;;;;;;7.60;69.20;;;;;;5074094;28;19960;-63
2021/04/09 00:58:03;;;;;;;;;;;7.60;69.20;;;;;;5074291;28;20007;-62
2021/04/09 01:00:29;;;;;;;;;;;7.60;69.30;;;;;;5072749;28;19928;-62
2021/04/09 01:02:57;;;;;;;;;;;7.60;69.40;;;;;;5074305;28;19934;-62
2021/04/09 01:05:24;;;;;;;;;;;7.60;69.30;;;;;;5073549;28;19924;-62
2021/04/09 01:07:50;;;;;;;;;;;7.50;69.10;;;;;;5073865;28;19924;-61
2021/04/09 01:10:18;;;;;;;;;;;7.50;68.60;;;;;;5074210;28;19924;-62
2021/04/09 01:12:45;;;;;;;;;;;7.50;68.80;;;;;;5073522;28;19935;-62
2021/04/09 01:15:12;;;;;;;;;;;7.40;69.10;;;;;;5074120;28;19924;-64
2021/04/09 01:17:40;;;;;;;;;;;7.40;69.10;;;;;;5073709;28;19924;-63
2021/04/09 01:20:18;;;;;;;;;;;7.40;69.30;;;;;;5073997;28;20374;-63
2021/04/09 01:22:47;;;;;;;;;;;7.40;69.20;;;;;;5073619;28;19935;-63
2021/04/09 01:25:22;;;;;;;;;;;7.30;68.90;;;;;;5072580;28;20255;-63
2021/04/09 01:28:01;;;;;;;;;;;7.30;68.80;;;;;;5053192;28;19940;-62
2021/04/09 01:30:52;;;;;;;;;;;7.30;68.50;;;;;;5052610;28;19925;-63
2021/04/09 01:33:20;;;;;;;;;;;7.30;68.60;;;;;;5054062;28;20277;-63
2021/04/09 01:35:48;;;;;;;;;;;7.30;68.40;;;;;;5053725;28;20011;-62
2021/04/09 01:38:17;;;;;;;;;;;7.20;68.20;;;;;;5053821;28;19935;-62
2021/04/09 01:40:45;;;;;;;;;;;7.30;68.20;;;;;;5053090;28;19929;-63
2021/04/09 01:43:13;;;;;;;;;;;7.20;68.20;;;;;;5053758;28;19925;-62
2021/04/09 01:45:40;;;;;;;;;;;7.20;68.40;;;;;;5053138;28;19986;-62
2021/04/09 01:48:08;;;;;;;;;;;7.20;68.50;;;;;;5053766;28;19929;-62
2021/04/09 01:50:35;;;;;;;;;;;7.10;68.40;;;;;;5053175;28;19937;-63
2021/04/09 01:53:02;;;;;;;;;;;7.10;68.70;;;;;;5053636;28;19925;-62
2021/04/09 01:55:30;;;;;;;;;;;7.10;68.70;;;;;;5053115;28;19928;-63
2021/04/09 01:57:56;;;;;;;;;;;7.10;69.20;;;;;;5053145;28;19925;-63
2021/04/09 02:00:24;;;;;;;;;;;7.10;69.10;;;;;;5053575;28;19935;-62
2021/04/09 02:02:51;;;;;;;;;;;7.00;68.90;;;;;;5053053;28;20252;-62
2021/04/09 02:05:18;;;;;;;;;;;6.90;69.00;;;;;;5053254;28;19925;-62
2021/04/09 02:07:46;;;;;;;;;;;6.90;69.40;;;;;;5052750;28;19931;-62
2021/04/09 02:10:13;;;;;;;;;;;6.90;69.60;;;;;;5053362;28;20359;-62
2021/04/09 02:12:40;;;;;;;;;;;6.90;69.60;;;;;;5052444;28;19933;-62
2021/04/09 02:15:08;;;;;;;;;;;6.90;69.50;;;;;;5053216;28;19960;-62
2021/04/09 02:17:34;;;;;;;;;;;7.00;69.60;;;;;;5052749;28;19925;-62
2021/04/09 02:20:01;;;;;;;;;;;7.00;69.50;;;;;;5053103;28;19931;-62
2021/04/09 02:22:27;;;;;;;;;;;7.00;69.50;;;;;;5053024;28;19959;-62
2021/04/09 02:24:56;;;;;;;;;;;7.00;69.30;;;;;;5052512;28;19925;-62
2021/04/09 02:27:22;;;;;;;;;;;7.00;69.50;;;;;;5052822;28;19946;-62
2021/04/09 02:29:49;;;;;;;;;;;7.00;69.50;;;;;;5052844;28;19939;-62
2021/04/09 02:32:16;;;;;;;;;;;7.00;69.40;;;;;;5053070;28;19924;-62
2021/04/09 02:34:42;;;;;;;;;;;7.00;69.20;;;;;;5052442;28;19925;-62
2021/04/09 02:37:08;;;;;;;;;;;7.00;69.10;;;;;;5053200;28;20432;-62
2021/04/09 02:39:36;;;;;;;;;;;6.90;69.30;;;;;;5052480;28;19925;-62
2021/04/09 02:42:05;;;;;;;;;;;6.90;69.40;;;;;;5053028;28;19933;-62
2021/04/09 02:44:32;;;;;;;;;;;6.90;69.40;;;;;;5052543;28;19935;-62
2021/04/09 02:47:02;;;;;;;;;;;6.90;69.40;;;;;;5052672;28;19947;-62
2021/04/09 02:49:31;;;;;;;;;;;6.90;69.50;;;;;;5052862;28;19925;-62
2021/04/09 02:51:57;;;;;;;;;;;6.90;69.50;;;;;;5052603;28;19963;-62
2021/04/09 02:54:24;;;;;;;;;;;6.90;69.40;;;;;;5052761;28;19925;-62
2021/04/09 02:56:51;;;;;;;;;;;6.90;69.10;;;;;;5052079;28;19929;-63
2021/04/09 02:59:18;;;;;;;;;;;6.80;69.20;;;;;;5052623;28;19925;-63
2021/04/09 03:01:46;;;;;;;;;;;6.80;69.50;;;;;;5052393;28;19939;-63
2021/04/09 03:04:12;;;;;;;;;;;6.70;69.40;;;;;;5052756;28;19924;-64
2021/04/09 03:06:42;;;;;;;;;;;6.70;69.30;;;;;;5052125;28;20347;-63
2021/04/09 03:09:09;;;;;;;;;;;6.70;69.50;;;;;;5052657;28;19928;-62
2021/04/09 03:11:35;;;;;;;;;;;6.70;69.30;;;;;;5051950;28;19935;-63
2021/04/09 03:14:02;;;;;;;;;;;6.70;69.70;;;;;;5052529;28;19925;-62
2021/04/09 03:16:30;;;;;;;;;;;6.60;69.90;;;;;;5052428;28;19951;-63
2021/04/09 03:18:56;;;;;;;;;;;6.50;69.60;;;;;;5052100;28;19932;-62
2021/04/09 03:21:22;;;;;;;;;;;6.60;70.20;;;;;;5052400;28;19978;-63
2021/04/09 03:23:48;;;;;;;;;;;6.60;70.30;;;;;;5053697;28;20331;-63
2021/04/09 03:26:14;;;;;;;;;;;6.60;69.90;;;;;;5056162;28;19931;-63
2021/04/09 03:28:41;;;;;;;;;;;6.50;69.80;;;;;;5055737;28;20114;-63
2021/04/09 03:31:07;;;;;;;;;;;6.50;70.20;;;;;;5056472;28;19925;-63
2021/04/09 03:33:34;;;;;;;;;;;6.40;70.20;;;;;;5056307;28;19935;-63
2021/04/09 03:36:00;;;;;;;;;;;6.40;70.30;;;;;;5055754;28;20669;-63
2021/04/09 03:38:26;;;;;;;;;;;6.40;70.60;;;;;;5055890;28;19925;-63
2021/04/09 03:40:53;;;;;;;;;;;6.50;70.80;;;;;;5055793;28;19925;-63
2021/04/09 03:43:19;;;;;;;;;;;6.50;70.60;;;;;;5055910;28;20011;-63
2021/04/09 03:45:45;;;;;;;;;;;6.50;70.80;;;;;;5055563;28;19924;-63
2021/04/09 03:48:11;;;;;;;;;;;6.60;70.70;;;;;;5055823;28;19924;-63
2021/04/09 03:50:38;;;;;;;;;;;6.60;70.60;;;;;;5055450;28;20369;-63
2021/04/09 03:53:05;;;;;;;;;;;6.60;70.60;;;;;;5055964;28;19936;-63
2021/04/09 03:55:31;;;;;;;;;;;6.60;70.40;;;;;;5055893;28;20251;-62
2021/04/09 03:57:57;;;;;;;;;;;6.60;70.10;;;;;;5055205;28;19933;-62
2021/04/09 04:00:24;;;;;;;;;;;6.60;70.10;;;;;;5055755;28;19924;-62
2021/04/09 04:02:50;;;;;;;;;;;6.70;70.30;;;;;;5055317;28;19929;-62
2021/04/09 04:05:17;;;;;;;;;;;6.60;70.10;;;;;;5055809;28;19925;-62
2021/04/09 04:07:44;;;;;;;;;;;6.60;70.30;;;;;;5055126;28;19940;-62
2021/04/09 04:10:11;;;;;;;;;;;6.60;70.00;;;;;;5055565;28;20049;-62
2021/04/09 04:12:37;;;;;;;;;;;6.60;70.00;;;;;;5055508;28;20347;-62
2021/04/09 04:15:04;;;;;;;;;;;6.50;69.70;;;;;;5066888;28;20054;-62
2021/04/09 04:17:30;;;;;;;;;;;6.40;69.90;;;;;;5075371;28;19931;-62
2021/04/09 04:19:57;;;;;;;;;;;6.40;70.10;;;;;;5074943;28;19958;-62
2021/04/09 04:22:23;;;;;;;;;;;6.40;70.40;;;;;;5075304;28;20366;-62
2021/04/09 04:24:50;;;;;;;;;;;6.30;70.60;;;;;;5074610;28;19924;-63
2021/04/09 04:27:17;;;;;;;;;;;6.30;70.90;;;;;;5075234;28;20166;-63
2021/04/09 04:29:43;;;;;;;;;;;6.30;70.80;;;;;;5074653;28;19925;-63
2021/04/09 04:32:09;;;;;;;;;;;6.20;70.60;;;;;;5074995;28;19931;-62
2021/04/09 04:34:35;;;;;;;;;;;6.30;70.90;;;;;;5075006;28;20240;-62
2021/04/09 04:37:02;;;;;;;;;;;6.30;71.00;;;;;;5074464;28;19928;-62
2021/04/09 04:39:28;;;;;;;;;;;6.30;71.00;;;;;;5075148;28;19925;-63
2021/04/09 04:41:55;;;;;;;;;;;6.20;71.30;;;;;;5074512;28;19924;-63
2021/04/09 04:44:21;;;;;;;;;;;6.20;71.10;;;;;;5074856;28;20270;-62
2021/04/09 04:46:47;;;;;;;;;;;6.20;71.20;;;;;;5074252;28;19931;-62
2021/04/09 04:49:16;;;;;;;;;;;6.20;71.20;;;;;;5074830;28;19924;-63
2021/04/09 04:51:42;;;;;;;;;;;6.30;71.40;;;;;;5074308;28;19924;-63
2021/04/09 04:54:09;;;;;;;;;;;6.30;71.30;;;;;;5074727;28;19935;-63
2021/04/09 04:56:35;;;;;;;;;;;6.30;71.00;;;;;;5074603;28;20370;-62
2021/04/09 04:59:02;;;;;;;;;;;6.30;70.90;;;;;;5074124;28;19939;-62
2021/04/09 05:01:28;;;;;;;;;;;6.30;71.00;;;;;;5074659;28;19928;-62
2021/04/09 05:03:55;;;;;;;;;;;6.30;71.10;;;;;;5074084;28;19924;-62
2021/04/09 05:06:21;;;;;;;;;;;6.30;70.90;;;;;;5074372;28;19924;-62
2021/04/09 05:08:47;;;;;;;;;;;6.30;71.30;;;;;;5073947;28;20266;-62
2021/04/09 05:11:13;;;;;;;;;;;6.30;71.30;;;;;;5074570;28;20236;-63
2021/04/09 05:13:40;;;;;;;;;;;6.30;71.60;;;;;;5074261;28;19925;-62
2021/04/09 05:16:07;;;;;;;;;;;6.30;71.20;;;;;;5073661;28;20369;-62
2021/04/09 05:18:33;;;;;;;;;;;6.40;71.30;;;;;;5074223;28;20266;-62
2021/04/09 05:20:59;;;;;;;;;;;6.50;71.40;;;;;;5073763;28;20270;-62
2021/04/09 05:23:26;;;;;;;;;;;6.40;71.10;;;;;;5074137;28;20684;-62
2021/04/09 05:25:52;;;;;;;;;;;6.50;71.30;;;;;;5073313;28;19925;-62
2021/04/09 05:28:18;;;;;;;;;;;6.50;71.60;;;;;;5073892;28;19924;-62
2021/04/09 05:30:44;;;;;;;;;;;6.50;71.10;;;;;;5073754;28;19925;-62
2021/04/09 05:33:11;;;;;;;;;;;6.50;71.00;;;;;;5073776;28;19924;-63
2021/04/09 05:35:37;;;;;;;;;;;6.50;70.70;;;;;;5073808;28;19929;-62
2021/04/09 05:38:04;;;;;;;;;;;6.50;70.80;;;;;;5073363;28;19940;-62
2021/04/09 05:40:30;;;;;;;;;;;6.50;71.00;;;;;;5073810;28;20356;-62
2021/04/09 05:42:57;;;;;;;;;;;6.60;70.90;;;;;;5073080;28;20011;-62
2021/04/09 05:45:23;;;;;;;;;;;6.60;70.80;;;;;;5073373;28;20290;-62
2021/04/09 05:47:50;;;;;;;;;;;6.60;71.00;;;;;;5072757;28;20258;-62
2021/04/09 05:50:17;;;;;;;;;;;6.60;70.40;;;;;;5073548;28;19925;-62
2021/04/09 05:52:43;;;;;;;;;;;6.60;70.40;;;;;;5073600;28;19978;-63
2021/04/09 05:55:10;;;;;;;;;;;6.60;70.60;;;;;;5073014;28;19931;-63
2021/04/09 05:57:36;;;;;;;;;;;6.70;71.50;;;;;;5073312;28;19982;-64
2021/04/09 06:00:03;;;;;;;;;;;6.70;70.70;;;;;;5073045;28;20363;-63
2021/04/09 06:02:30;;;;;;;;;;;6.70;70.40;;;;;;5073456;28;19928;-62
2021/04/09 06:04:56;;;;;;;;;;;6.80;70.50;;;;;;5072991;28;19930;-63
2021/04/09 06:07:23;;;;;;;;;;;6.80;70.40;;;;;;5073073;28;20452;-62
2021/04/09 06:09:49;;;;;;;;;;;6.90;70.50;;;;;;5072836;28;20374;-63
2021/04/09 06:12:15;;;;;;;;;;;6.90;70.60;;;;;;5073251;28;19924;-63
2021/04/09 06:14:42;;;;;;;;;;;7.00;70.40;;;;;;5073321;28;19924;-63
2021/04/09 06:17:08;;;;;;;;;;;7.10;70.40;;;;;;5072590;28;20246;-63
2021/04/09 06:19:34;;;;;;;;;;;7.10;70.00;;;;;;5073158;28;19928;-63
2021/04/09 06:22:01;;;;;;;;;;;7.20;70.10;;;;;;5072924;28;19925;-63
2021/04/09 06:24:28;;;;;;;;;;;7.20;69.90;;;;;;5073172;28;19924;-63
2021/04/09 06:26:54;;;;;;;;;;;7.30;69.90;;;;;;5072610;28;20332;-63
2021/04/09 06:29:20;;;;;;;;;;;7.30;69.50;;;;;;5073105;28;20236;-63
2021/04/09 06:31:47;;;;;;;;;;;7.40;69.10;;;;;;5072975;28;19932;-63
2021/04/09 06:34:13;;;;;;;;;;;7.50;69.20;;;;;;5073024;28;20479;-63
2021/04/09 06:36:39;;;;;;;;;;;7.50;68.70;;;;;;5073069;28;20056;-64
2021/04/09 06:39:06;;;;;;;;;;;7.50;68.70;;;;;;5072518;28;20330;-63
2021/04/09 06:41:33;;;;;;;;;;;7.60;68.60;;;;;;5073127;28;19925;-63
2021/04/09 06:44:00;;;;;;;;;;;7.60;67.80;;;;;;5072512;28;19925;-63
2021/04/09 06:46:26;;;;;;;;;;;7.60;67.50;;;;;;5072752;28;19924;-63
2021/04/09 06:48:52;;;;;;;;;;;7.60;67.80;;;;;;5072651;28;19925;-63
2021/04/09 06:51:18;;;;;;;;;;;7.70;68.10;;;;;;5072912;28;19934;-63
2021/04/09 06:53:47;;;;;;;;;;;7.70;68.10;;;;;;5072893;28;19935;-63
2021/04/09 06:56:14;;;;;;;;;;;7.80;67.90;;;;;;5072419;28;19924;-63
2021/04/09 06:58:42;;;;;;;;;;;7.90;68.30;;;;;;5075850;28;19925;-63
2021/04/09 07:01:09;;;;;;;;;;;8.10;68.40;;;;;;5076579;28;20192;-63
2021/04/09 07:03:35;;;;;;;;;;;8.10;67.40;;;;;;5076696;28;19924;-63
2021/04/09 07:06:01;;;;;;;;;;;8.20;67.30;;;;;;5076196;28;19925;-63
2021/04/09 07:08:29;;;;;;;;;;;8.20;67.00;;;;;;5076888;28;19924;-63
2021/04/09 07:10:55;;;;;;;;;;;8.40;66.90;;;;;;5076273;28;19924;-63
2021/04/09 07:13:21;;;;;;;;;;;8.40;67.00;;;;;;5076508;28;19977;-63
2021/04/09 07:15:48;;;;;;;;;;;8.50;67.10;;;;;;5076855;28;20125;-62
2021/04/09 07:18:16;;;;;;;;;;;8.60;66.80;;;;;;5075770;28;19925;-64
2021/04/09 07:20:42;;;;;;;;;;;8.70;67.00;;;;;;5076575;28;19924;-62
2021/04/09 07:23:10;;;;;;;;;;;8.80;66.60;;;;;;5076093;28;19928;-64
2021/04/09 07:25:37;;;;;;;;;;;8.80;66.30;;;;;;5076184;28;20539;-62
2021/04/09 07:28:10;;;;;;;;;;;8.80;65.00;;;;;;5075698;28;19974;-62
2021/04/09 07:30:37;;;;;;;;;;;8.80;65.80;;;;;;5076189;28;19935;-62
2021/04/09 07:33:05;;;;;;;;;;;8.90;66.00;;;;;;5075801;28;19934;-62
2021/04/09 07:35:42;;;;;;;;;;;8.90;65.80;;;;;;5076199;28;19925;-62
2021/04/09 07:38:09;;;;;;;;;;;8.90;65.20;;;;;;5075616;28;19939;-62
2021/04/09 07:40:35;;;;;;;;;;;9.10;65.70;;;;;;5076311;28;19924;-62
2021/04/09 07:43:01;;;;;;;;;;;9.20;65.80;;;;;;5075726;28;19977;-62
2021/04/09 07:45:29;;;;;;;;;;;9.20;65.10;;;;;;5076057;28;19924;-62
2021/04/09 07:47:59;;;;;;;;;;;9.30;64.90;;;;;;5075343;28;20048;-62
2021/04/09 07:50:38;;;;;;;;;;;9.40;64.10;;;;;;5075888;28;19924;-62
2021/04/09 07:53:05;;;;;;;;;;;9.50;64.20;;;;;;5075329;28;19989;-62
2021/04/09 07:55:32;;;;;;;;;;;9.60;63.80;;;;;;5075920;28;19987;-62
2021/04/09 07:58:12;;;;;;;;;;;9.70;64.00;;;;;;5075377;28;19932;-63
2021/04/09 08:00:38;;;;;;;;;;;9.80;63.40;;;;;;5075593;28;19928;-61
2021/04/09 08:03:04;;;;;;;;;;;9.90;63.00;;;;;;5075316;28;20406;-62
2021/04/09 08:05:31;;;;;;;;;;;10.00;61.90;;;;;;5075592;28;20312;-62
2021/04/09 08:07:58;;;;;;;;;;;10.10;62.20;;;;;;5075019;28;19925;-62
2021/04/09 08:10:27;;;;;;;;;;;10.30;61.90;;;;;;5074989;28;19981;-63
2021/04/09 08:12:55;;;;;;;;;;;10.30;61.30;;;;;;5075428;28;19924;-63
2021/04/09 08:15:22;;;;;;;;;;;10.40;61.00;;;;;;5075289;28;20667;-62
2021/04/09 08:17:58;;;;;;;;;;;10.40;60.80;;;;;;5075319;28;19935;-63
2021/04/09 08:20:25;;;;;;;;;;;10.50;59.90;;;;;;5055010;28;19932;-63
2021/04/09 08:22:51;;;;;;;;;;;10.60;59.90;;;;;;5055314;28;19933;-63
2021/04/09 08:25:18;;;;;;;;;;;10.70;60.30;;;;;;5054443;28;20005;-63
2021/04/09 08:27:45;;;;;;;;;;;10.70;60.00;;;;;;5055266;28;20284;-64
2021/04/09 08:30:12;;;;;;;;;;;10.70;59.80;;;;;;5054436;28;20421;-62
2021/04/09 08:32:38;;;;;;;;;;;10.80;59.90;;;;;;5054726;28;19929;-63
2021/04/09 08:35:07;;;;;;;;;;;11.00;60.00;;;;;;5054689;28;19986;-63
2021/04/09 08:37:34;;;;;;;;;;;11.10;59.90;;;;;;5054866;28;19925;-63
2021/04/09 08:40:00;;;;;;;;;;;11.20;59.70;;;;;;5054929;28;19973;-62
2021/04/09 08:42:28;;;;;;;;;;;11.40;59.80;;;;;;5054220;28;19933;-62
2021/04/09 08:44:54;;;;;;;;;;;11.60;59.70;;;;;;5054847;28;19925;-63
2021/04/09 08:47:21;;;;;;;;;;;11.70;59.60;;;;;;5054219;28;20373;-63
2021/04/09 08:49:47;;;;;;;;;;;11.70;58.90;;;;;;5054450;28;20363;-63
2021/04/09 08:52:15;;;;;;;;;;;11.80;58.90;;;;;;5053520;28;19925;-63
2021/04/09 08:54:48;;;;;;;;;;;11.90;58.60;;;;;;5053670;28;19925;-63
2021/04/09 08:57:25;;;;;;;;;;;12.00;58.80;;;;;;5053454;28;19939;-63
2021/04/09 09:00:02;;;;;;;;;;;12.10;58.30;;;;;;5053972;28;20003;-63
2021/04/09 09:02:38;;;;;;;;;;;12.20;58.30;;;;;;5054062;28;19986;-63
2021/04/09 09:05:06;;;;;;;;;;;12.30;58.30;;;;;;5053972;28;19985;-63
2021/04/09 09:07:52;;;;;;;;;;;12.40;58.10;;;;;;5054099;28;20356;-63
2021/04/09 09:10:33;;;;;;;;;;;12.50;58.20;;;;;;5053914;28;19936;-62
2021/04/09 09:13:18;;;;;;;;;;;12.60;58.00;;;;;;5053462;28;19937;-62
2021/04/09 09:15:54;;;;;;;;;;;12.70;57.20;;;;;;5066313;28;19925;-62
2021/04/09 09:18:39;;;;;;;;;;;12.70;57.40;;;;;;5054264;28;19925;-62
2021/04/09 09:21:09;;;;;;;;;;;12.80;57.20;;;;;;5064807;28;19925;-63
2021/04/09 09:23:41;;;;;;;;;;;12.90;57.20;;;;;;5054389;28;19928;-63
2021/04/09 09:26:17;;;;;;;;;;;12.90;57.30;;;;;;5053372;28;19924;-61
2021/04/09 09:28:45;;;;;;;;;;;13.00;56.90;;;;;;5054044;28;19939;-62
2021/04/09 09:31:27;;;;;;;;;;;13.10;56.80;;;;;;5053360;28;19989;-61
2021/04/09 09:34:18;;;;;;;;;;;13.20;57.00;;;;;;5054088;28;20248;-61
2021/04/09 09:37:08;;;;;;;;;;;13.30;55.60;;;;;;5061866;28;19935;-62
2021/04/09 09:39:35;;;;;;;;;;;13.40;55.20;;;;;;5044269;28;19956;-63
2021/04/09 09:42:10;;;;;;;;;;;13.40;55.40;;;;;;5053087;27;1665620;-64
2021/04/09 09:44:43;;;;;;;;;;;13.40;55.50;;;;;;5110943;28;20316;-63
2021/04/09 09:47:18;;;;;;;;;;;13.40;56.10;;;;;;5096684;28;20258;-63
2021/04/09 09:49:59;;;;;;;;;;;13.40;56.10;;;;;;5069896;28;20351;-62
2021/04/09 09:52:25;;;;;;;;;;;13.50;55.60;;;;;;5070217;28;19925;-62
2021/04/09 09:55:10;;;;;;;;;;;13.50;56.00;;;;;;5069798;28;19924;-61
2021/04/09 09:57:44;;;;;;;;;;;13.60;55.60;;;;;;5069450;28;19998;-62
2021/04/09 10:00:11;;;;;;;;;;;13.50;55.20;;;;;;5069858;28;20024;-62
2021/04/09 10:02:37;;;;;;;;;;;13.60;55.40;;;;;;5069726;28;19981;-62
2021/04/09 10:05:04;;;;;;;;;;;13.60;55.50;;;;;;5069916;28;20361;-62
2021/04/09 10:07:30;;;;;;;;;;;13.60;55.70;;;;;;5069287;28;20013;-62
2021/04/09 10:09:57;;;;;;;;;;;13.80;55.60;;;;;;5069995;28;19935;-62
2021/04/09 10:12:23;;;;;;;;;;;13.80;55.60;;;;;;5069712;28;19925;-62
2021/04/09 10:14:52;;;;;;;;;;;13.90;55.30;;;;;;5069400;28;19977;-63
2021/04/09 10:17:18;;;;;;;;;;;13.90;55.00;;;;;;5069772;28;19973;-63
2021/04/09 10:19:56;;;;;;;;;;;14.00;55.20;;;;;;5069128;28;19925;-63
2021/04/09 10:22:22;;;;;;;;;;;14.10;55.30;;;;;;5069682;28;19925;-63
2021/04/09 10:24:48;;;;;;;;;;;14.10;55.10;;;;;;5069238;28;20400;-63
2021/04/09 10:27:15;;;;;;;;;;;14.20;55.00;;;;;;5069291;28;19986;-63
2021/04/09 10:29:41;;;;;;;;;;;14.20;54.90;;;;;;5069030;28;19928;-63
2021/04/09 10:32:14;;;;;;;;;;;14.30;55.00;;;;;;5069483;28;19931;-63
2021/04/09 10:34:41;;;;;;;;;;;14.30;54.70;;;;;;5069051;28;20355;-63
2021/04/09 10:37:07;;;;;;;;;;;14.30;54.00;;;;;;5069133;28;20381;-63
2021/04/09 10:39:33;;;;;;;;;;;14.30;54.20;;;;;;5068691;28;19925;-63
2021/04/09 10:42:02;;;;;;;;;;;14.40;54.40;;;;;;5068938;28;19931;-63
2021/04/09 10:44:29;;;;;;;;;;;14.40;54.40;;;;;;5068622;28;20259;-62
2021/04/09 10:46:56;;;;;;;;;;;14.40;54.40;;;;;;5068577;28;19936;-63
2021/04/09 10:49:24;;;;;;;;;;;14.50;54.40;;;;;;5068798;28;19925;-62
2021/04/09 10:51:51;;;;;;;;;;;14.60;54.10;;;;;;5064343;28;20048;-63
2021/04/09 10:54:19;;;;;;;;;;;14.60;54.20;;;;;;5056037;28;19968;-63
2021/04/09 10:56:50;;;;;;;;;;;14.60;54.10;;;;;;5055235;28;19935;-63
2021/04/09 10:59:16;;;;;;;;;;;14.60;54.00;;;;;;5055566;28;19925;-63
2021/04/09 11:01:42;;;;;;;;;;;14.50;54.00;;;;;;5055262;28;19982;-62
2021/04/09 11:04:09;;;;;;;;;;;14.40;54.10;;;;;;5055491;28;20011;-62
2021/04/09 11:06:36;;;;;;;;;;;14.40;54.50;;;;;;5055008;28;19925;-62
2021/04/09 11:09:05;;;;;;;;;;;14.40;54.40;;;;;;5055534;28;19931;-63
2021/04/09 11:11:32;;;;;;;;;;;14.50;54.50;;;;;;5055493;28;20386;-62
2021/04/09 11:14:02;;;;;;;;;;;14.60;54.40;;;;;;5054836;28;19935;-62
2021/04/09 11:16:28;;;;;;;;;;;14.70;54.20;;;;;;5055371;28;20007;-63
2021/04/09 11:18:55;;;;;;;;;;;14.70;54.50;;;;;;5054934;28;19935;-62
2021/04/09 11:21:40;;;;;;;;;;;14.80;53.90;;;;;;5055101;28;20373;-63
2021/04/09 11:24:07;;;;;;;;;;;14.80;54.20;;;;;;5075035;28;19985;-63
2021/04/09 11:26:35;;;;;;;;;;;14.80;54.60;;;;;;5075288;28;19928;-63
2021/04/09 11:29:01;;;;;;;;;;;14.70;54.30;;;;;;5074571;28;19935;-63
2021/04/09 11:31:27;;;;;;;;;;;14.80;54.40;;;;;;5075370;28;20273;-63
2021/04/09 11:34:07;;;;;;;;;;;14.80;54.10;;;;;;5074760;28;19924;-65
2021/04/09 11:36:41;;;;;;;;;;;14.80;54.20;;;;;;5074757;28;19924;-62
2021/04/09 11:39:09;;;;;;;;;;;14.90;54.30;;;;;;5074449;28;19925;-62
2021/04/09 11:41:37;;;;;;;;;;;14.90;54.30;;;;;;5074923;28;20005;-62
2021/04/09 11:44:18;;;;;;;;;;;14.90;54.20;;;;;;5074242;28;19963;-62
2021/04/09 11:46:44;;;;;;;;;;;15.00;54.30;;;;;;5074174;28;19989;-62
2021/04/09 11:49:10;;;;;;;;;;;15.00;54.60;;;;;;5074777;28;19932;-61
2021/04/09 11:51:37;;;;;;;;;;;15.00;54.50;;;;;;5074699;28;19928;-61
2021/04/09 11:54:04;;;;;;;;;;;14.90;53.80;;;;;;5074333;28;19990;-62
2021/04/09 11:56:38;;;;;;;;;;;14.90;54.00;;;;;;5074645;28;19928;-61
2021/04/09 11:59:09;;;;;;;;;;;15.00;54.00;;;;;;5074085;28;19933;-62
2021/04/09 12:01:35;;;;;;;;;;;15.10;54.10;;;;;;5074521;28;19928;-62
2021/04/09 12:04:01;;;;;;;;;;;15.10;53.70;;;;;;5073240;28;20019;-62
2021/04/09 12:06:34;;;;;;;;;;;15.20;53.70;;;;;;5072107;28;19924;-62
2021/04/09 12:09:01;;;;;;;;;;;15.10;53.80;;;;;;5066604;28;19929;-62
2021/04/09 12:11:27;;;;;;;;;;;15.10;53.80;;;;;;5066082;28;19981;-62
2021/04/09 12:13:54;;;;;;;;;;;15.10;54.10;;;;;;5068255;28;19931;-63
2021/04/09 12:16:20;;;;;;;;;;;15.10;54.10;;;;;;5066586;28;19929;-63
2021/04/09 12:18:47;;;;;;;;;;;15.10;53.50;;;;;;5060218;28;19935;-63
2021/04/09 12:21:13;;;;;;;;;;;15.10;53.70;;;;;;5061340;28;19935;-63
2021/04/09 12:23:39;;;;;;;;;;;15.20;53.90;;;;;;5069612;28;19932;-63
2021/04/09 12:26:06;;;;;;;;;;;15.30;53.50;;;;;;5073635;28;19932;-63
2021/04/09 12:28:32;;;;;;;;;;;15.30;53.40;;;;;;5059945;28;20289;-63
2021/04/09 12:30:59;;;;;;;;;;;15.30;53.70;;;;;;5060520;28;19977;-63
2021/04/09 12:33:25;;;;;;;;;;;15.30;53.60;;;;;;5067111;28;19925;-63
2021/04/09 12:35:52;;;;;;;;;;;15.30;53.30;;;;;;5066594;28;19925;-63
2021/04/09 12:38:18;;;;;;;;;;;15.30;52.70;;;;;;5059960;28;19931;-63
2021/04/09 12:40:44;;;;;;;;;;;15.20;52.50;;;;;;5062998;28;20379;-62
2021/04/09 12:43:10;;;;;;;;;;;15.30;52.60;;;;;;5059451;28;19935;-62
2021/04/09 12:45:37;;;;;;;;;;;15.30;51.90;;;;;;5061180;28;19925;-62
2021/04/09 12:48:04;;;;;;;;;;;15.30;51.90;;;;;;5066476;28;19935;-62
2021/04/09 12:50:31;;;;;;;;;;;15.30;52.20;;;;;;5065892;28;20439;-63
2021/04/09 12:52:57;;;;;;;;;;;15.40;52.00;;;;;;5059599;28;20385;-62
2021/04/09 12:55:23;;;;;;;;;;;15.40;51.90;;;;;;5060603;28;20003;-61
2021/04/09 12:57:50;;;;;;;;;;;15.50;51.90;;;;;;5065932;28;20156;-63
2021/04/09 13:00:17;;;;;;;;;;;15.50;52.20;;;;;;5066255;28;19925;-62
2021/04/09 13:02:43;;;;;;;;;;;15.50;52.60;;;;;;5072637;28;20271;-63
2021/04/09 13:05:11;;;;;;;;;;;15.40;52.60;;;;;;5071107;28;20024;-62
2021/04/09 13:07:37;;;;;;;;;;;15.40;52.70;;;;;;5073451;28;20274;-62
2021/04/09 13:10:04;;;;;;;;;;;15.50;52.80;;;;;;5072762;28;20367;-63
2021/04/09 13:12:30;;;;;;;;;;;15.50;52.40;;;;;;5073183;28;19928;-62
2021/04/09 13:14:56;;;;;;;;;;;15.50;52.30;;;;;;5072662;28;20363;-63
2021/04/09 13:17:23;;;;;;;;;;;15.50;52.30;;;;;;5072768;28;19931;-63
2021/04/09 13:19:49;;;;;;;;;;;15.50;52.50;;;;;;5073150;28;19931;-63
2021/04/09 13:22:16;;;;;;;;;;;15.60;52.40;;;;;;5072706;28;19924;-62
2021/04/09 13:24:42;;;;;;;;;;;15.60;52.50;;;;;;5071159;28;20423;-63
2021/04/09 13:27:14;;;;;;;;;;;15.60;52.70;;;;;;5050815;28;20412;-63
2021/04/09 13:29:41;;;;;;;;;;;15.50;52.60;;;;;;5040692;28;19947;-63
2021/04/09 13:32:07;;;;;;;;;;;15.60;52.60;;;;;;5032530;28;19936;-63
2021/04/09 13:34:33;;;;;;;;;;;15.60;52.40;;;;;;5032244;28;19925;-63
2021/04/09 13:37:00;;;;;;;;;;;15.60;52.60;;;;;;5036256;28;19925;-63
2021/04/09 13:39:27;;;;;;;;;;;15.70;52.30;;;;;;5050825;28;19932;-62
2021/04/09 13:41:53;;;;;;;;;;;15.70;51.80;;;;;;5059084;28;19924;-63
2021/04/09 13:44:19;;;;;;;;;;;15.80;52.00;;;;;;5070935;28;19925;-63
2021/04/09 13:46:45;;;;;;;;;;;15.70;51.60;;;;;;5066887;28;19954;-62
2021/04/09 13:49:12;;;;;;;;;;;15.70;51.50;;;;;;5062791;28;20277;-61
2021/04/09 13:51:38;;;;;;;;;;;15.70;52.00;;;;;;5063980;28;19928;-62
2021/04/09 13:54:05;;;;;;;;;;;15.70;51.70;;;;;;5060101;28;19929;-64
2021/04/09 13:56:32;;;;;;;;;;;15.70;51.40;;;;;;5059734;28;20377;-62
2021/04/09 13:58:58;;;;;;;;;;;15.80;51.20;;;;;;5071053;28;19931;-62
2021/04/09 14:01:24;;;;;;;;;;;15.80;51.50;;;;;;5072730;28;19924;-62
2021/04/09 14:03:51;;;;;;;;;;;15.80;51.60;;;;;;5072612;28;19928;-61
2021/04/09 14:06:17;;;;;;;;;;;15.80;51.40;;;;;;5067894;28;19930;-63
2021/04/09 14:08:43;;;;;;;;;;;15.90;50.70;;;;;;5070167;28;19936;-62
2021/04/09 14:11:09;;;;;;;;;;;15.90;50.40;;;;;;5068204;28;19967;-62
2021/04/09 14:13:36;;;;;;;;;;;15.70;51.30;;;;;;5069877;28;19931;-62
2021/04/09 14:16:03;;;;;;;;;;;15.70;51.20;;;;;;5066294;28;19941;-63
2021/04/09 14:18:29;;;;;;;;;;;15.60;51.50;;;;;;5067185;28;19924;-63
2021/04/09 14:20:55;;;;;;;;;;;15.60;51.30;;;;;;5070383;28;19924;-63
2021/04/09 14:23:21;;;;;;;;;;;15.60;51.50;;;;;;5071352;28;20170;-63
2021/04/09 14:25:48;;;;;;;;;;;15.50;51.80;;;;;;5070227;28;19929;-63
2021/04/09 14:28:14;;;;;;;;;;;15.50;52.20;;;;;;5061720;28;20374;-62